sensor_id;sensor_type;location;lat;lon;timestamp;temperature;humidity
56322;DHT22;42227;6.376;-10.782;2023-01-31T00:01:40;27.80;99.90
56322;DHT22;42227;6.376;-10.782;2023-01-31T00:04:10;27.70;99.90
56322;DHT22;42227;6.376;-10.782;2023-01-31T00:06:43;27.80;99.90
56322;DHT22;42227;6.376;-10.782;2023-01-31T00:09:12;27.80;99.90
56322;DHT22;42227;6.376;-10.782;2023-01-31T00:11:40;27.80;99.90
56322;DHT22;42227;6.376;-10.782;2023-01-31T00:14:09;27.80;99.90
56322;DHT22;42227;6.376;-10.782;2023-01-31T00:16:37;27.80;99.90
56322;DHT22;42227;6.376;-10.782;2023-01-31T00:19:06;27.70;99.90
56322;DHT22;42227;6.376;-10.782;2023-01-31T00:21:35;27.50;99.90
56322;DHT22;42227;6.376;-10.782;2023-01-31T00:24:03;27.50;99.90
56322;DHT22;42227;6.376;-10.782;2023-01-31T00:26:33;27.60;99.90
56322;DHT22;42227;6.376;-10.782;2023-01-31T00:29:04;27.50;99.90
56322;DHT22;42227;6.376;-10.782;2023-01-31T00:31:33;26.80;99.90
56322;DHT22;42227;6.376;-10.782;2023-01-31T00:34:03;26.60;99.90
56322;DHT22;42227;6.376;-10.782;2023-01-31T00:36:33;26.60;99.90
56322;DHT22;42227;6.376;-10.782;2023-01-31T00:39:05;26.60;99.90
56322;DHT22;42227;6.376;-10.782;2023-01-31T00:41:35;26.50;99.90
56322;DHT22;42227;6.376;-10.782;2023-01-31T00:44:05;26.50;99.90
56322;DHT22;42227;6.376;-10.782;2023-01-31T00:46:34;26.70;99.90
56322;DHT22;42227;6.376;-10.782;2023-01-31T00:49:03;26.80;99.90
56322;DHT22;42227;6.376;-10.782;2023-01-31T00:51:38;26.90;99.90
56322;DHT22;42227;6.376;-10.782;2023-01-31T00:54:06;27.10;99.90
56322;DHT22;42227;6.376;-10.782;2023-01-31T00:56:34;27.00;99.90
56322;DHT22;42227;6.376;-10.782;2023-01-31T00:59:03;27.00;99.90
56322;DHT22;42227;6.376;-10.782;2023-01-31T01:01:31;26.90;99.90
56322;DHT22;42227;6.376;-10.782;2023-01-31T01:03:59;27.00;99.90
56322;DHT22;42227;6.376;-10.782;2023-01-31T01:06:32;26.80;99.90
56322;DHT22;42227;6.376;-10.782;2023-01-31T01:09:01;26.90;99.90
56322;DHT22;42227;6.376;-10.782;2023-01-31T01:11:32;26.90;99.90
56322;DHT22;42227;6.376;-10.782;2023-01-31T01:14:02;26.90;99.90
56322;DHT22;42227;6.376;-10.782;2023-01-31T01:16:33;26.80;99.90
56322;DHT22;42227;6.376;-10.782;2023-01-31T01:19:07;26.80;99.90
56322;DHT22;42227;6.376;-10.782;2023-01-31T01:21:35;26.80;99.90
56322;DHT22;42227;6.376;-10.782;2023-01-31T01:24:05;26.80;99.90
56322;DHT22;42227;6.376;-10.782;2023-01-31T01:26:34;26.60;99.90
56322;DHT22;42227;6.376;-10.782;2023-01-31T01:29:03;26.70;99.90
56322;DHT22;42227;6.376;-10.782;2023-01-31T01:31:32;26.60;99.90
56322;DHT22;42227;6.376;-10.782;2023-01-31T01:34:04;26.90;99.90
56322;DHT22;42227;6.376;-10.782;2023-01-31T01:36:34;27.00;99.90
56322;DHT22;42227;6.376;-10.782;2023-01-31T01:39:04;26.60;99.90
56322;DHT22;42227;6.376;-10.782;2023-01-31T01:41:32;26.50;99.90
56322;DHT22;42227;6.376;-10.782;2023-01-31T01:44:39;26.40;99.90
56322;DHT22;42227;6.376;-10.782;2023-01-31T01:46:51;26.40;99.90
56322;DHT22;42227;6.376;-10.782;2023-01-31T01:49:32;26.40;99.90
56322;DHT22;42227;6.376;-10.782;2023-01-31T01:52:03;26.40;99.90
56322;DHT22;42227;6.376;-10.782;2023-01-31T01:55:03;26.50;99.90
56322;DHT22;42227;6.376;-10.782;2023-01-31T01:57:38;26.50;99.90
56322;DHT22;42227;6.376;-10.782;2023-01-31T02:00:16;26.90;99.90
56322;DHT22;42227;6.376;-10.782;2023-01-31T02:02:48;26.80;99.90
56322;DHT22;42227;6.376;-10.782;2023-01-31T02:05:21;26.50;99.90
56322;DHT22;42227;6.376;-10.782;2023-01-31T02:07:51;26.50;99.90
56322;DHT22;42227;6.376;-10.782;2023-01-31T02:10:33;26.50;99.90
56322;DHT22;42227;6.376;-10.782;2023-01-31T02:13:06;26.50;99.90
56322;DHT22;42227;6.376;-10.782;2023-01-31T02:15:35;26.60;99.90
56322;DHT22;42227;6.376;-10.782;2023-01-31T02:18:05;26.50;99.90
56322;DHT22;42227;6.376;-10.782;2023-01-31T02:46:13;26.50;99.90
56322;DHT22;42227;6.376;-10.782;2023-01-31T02:49:06;26.50;99.90
56322;DHT22;42227;6.376;-10.782;2023-01-31T02:51:44;26.60;99.90
56322;DHT22;42227;6.376;-10.782;2023-01-31T02:54:23;26.50;99.90
56322;DHT22;42227;6.376;-10.782;2023-01-31T02:56:52;26.50;99.90
56322;DHT22;42227;6.376;-10.782;2023-01-31T02:59:23;26.30;99.90
56322;DHT22;42227;6.376;-10.782;2023-01-31T03:01:58;26.30;99.90
56322;DHT22;42227;6.376;-10.782;2023-01-31T03:04:32;26.30;99.90
56322;DHT22;42227;6.376;-10.782;2023-01-31T03:07:12;26.20;99.90
56322;DHT22;42227;6.376;-10.782;2023-01-31T03:18:06;26.10;99.90
56322;DHT22;42227;6.376;-10.782;2023-01-31T03:20:43;26.10;99.90
56322;DHT22;42227;6.376;-10.782;2023-01-31T03:23:19;26.10;99.90
56322;DHT22;42227;6.376;-10.782;2023-01-31T03:25:49;26.10;99.90
56322;DHT22;42227;6.376;-10.782;2023-01-31T03:28:22;26.20;99.90
56322;DHT22;42227;6.376;-10.782;2023-01-31T03:31:18;26.10;99.90
56322;DHT22;42227;6.376;-10.782;2023-01-31T03:33:51;26.00;99.90
56322;DHT22;42227;6.376;-10.782;2023-01-31T03:40:20;26.00;99.90
56322;DHT22;42227;6.376;-10.782;2023-01-31T03:42:38;25.90;99.90
56322;DHT22;42227;6.376;-10.782;2023-01-31T03:45:17;25.80;99.90
56322;DHT22;42227;6.376;-10.782;2023-01-31T03:47:49;25.70;99.90
56322;DHT22;42227;6.376;-10.782;2023-01-31T03:50:24;25.60;99.90
56322;DHT22;42227;6.376;-10.782;2023-01-31T03:53:07;25.60;99.90
56322;DHT22;42227;6.376;-10.782;2023-01-31T03:55:40;25.50;99.90
56322;DHT22;42227;6.376;-10.782;2023-01-31T03:58:12;25.60;99.90
56322;DHT22;42227;6.376;-10.782;2023-01-31T04:00:43;25.50;99.90
56322;DHT22;42227;6.376;-10.782;2023-01-31T04:03:19;25.50;99.90
56322;DHT22;42227;6.376;-10.782;2023-01-31T04:05:50;25.60;99.90
56322;DHT22;42227;6.376;-10.782;2023-01-31T04:08:19;25.60;99.90
56322;DHT22;42227;6.376;-10.782;2023-01-31T04:10:58;25.60;99.90
56322;DHT22;42227;6.376;-10.782;2023-01-31T04:13:27;25.40;99.90
56322;DHT22;42227;6.376;-10.782;2023-01-31T04:15:56;25.30;99.90
56322;DHT22;42227;6.376;-10.782;2023-01-31T04:18:24;25.30;99.90
56322;DHT22;42227;6.376;-10.782;2023-01-31T04:20:52;25.30;99.90
56322;DHT22;42227;6.376;-10.782;2023-01-31T04:23:20;25.60;99.90
56322;DHT22;42227;6.376;-10.782;2023-01-31T04:25:49;25.80;99.90
56322;DHT22;42227;6.376;-10.782;2023-01-31T04:28:17;25.70;99.90
56322;DHT22;42227;6.376;-10.782;2023-01-31T04:30:45;25.80;99.90
56322;DHT22;42227;6.376;-10.782;2023-01-31T04:33:13;25.90;99.90
56322;DHT22;42227;6.376;-10.782;2023-01-31T04:35:42;25.80;99.90
56322;DHT22;42227;6.376;-10.782;2023-01-31T04:38:10;25.80;99.90
56322;DHT22;42227;6.376;-10.782;2023-01-31T04:40:38;25.80;99.90
56322;DHT22;42227;6.376;-10.782;2023-01-31T04:43:06;25.70;99.90
56322;DHT22;42227;6.376;-10.782;2023-01-31T04:45:35;25.60;99.90
56322;DHT22;42227;6.376;-10.782;2023-01-31T04:48:03;25.60;99.90
56322;DHT22;42227;6.376;-10.782;2023-01-31T04:50:31;25.70;99.90
56322;DHT22;42227;6.376;-10.782;2023-01-31T04:53:00;25.60;99.90
56322;DHT22;42227;6.376;-10.782;2023-01-31T04:55:28;25.60;99.90
56322;DHT22;42227;6.376;-10.782;2023-01-31T04:57:56;25.40;99.90
56322;DHT22;42227;6.376;-10.782;2023-01-31T05:00:25;25.30;99.90
56322;DHT22;42227;6.376;-10.782;2023-01-31T05:02:53;25.30;99.90
56322;DHT22;42227;6.376;-10.782;2023-01-31T05:05:21;25.30;99.90
56322;DHT22;42227;6.376;-10.782;2023-01-31T05:07:50;25.20;99.90
56322;DHT22;42227;6.376;-10.782;2023-01-31T05:10:18;25.20;99.90
56322;DHT22;42227;6.376;-10.782;2023-01-31T05:12:46;25.20;99.90
56322;DHT22;42227;6.376;-10.782;2023-01-31T05:15:15;25.10;99.90
56322;DHT22;42227;6.376;-10.782;2023-01-31T05:17:43;25.10;99.90
56322;DHT22;42227;6.376;-10.782;2023-01-31T05:20:11;25.00;99.90
56322;DHT22;42227;6.376;-10.782;2023-01-31T05:22:40;25.40;99.90
56322;DHT22;42227;6.376;-10.782;2023-01-31T05:25:08;25.50;99.90
56322;DHT22;42227;6.376;-10.782;2023-01-31T05:27:36;25.70;99.90
56322;DHT22;42227;6.376;-10.782;2023-01-31T05:30:05;25.80;99.90
56322;DHT22;42227;6.376;-10.782;2023-01-31T05:32:35;25.90;99.90
56322;DHT22;42227;6.376;-10.782;2023-01-31T05:35:04;25.90;99.90
56322;DHT22;42227;6.376;-10.782;2023-01-31T05:37:33;25.80;99.90
56322;DHT22;42227;6.376;-10.782;2023-01-31T05:40:01;25.80;99.90
56322;DHT22;42227;6.376;-10.782;2023-01-31T05:42:30;25.90;99.90
56322;DHT22;42227;6.376;-10.782;2023-01-31T05:44:58;26.00;99.90
56322;DHT22;42227;6.376;-10.782;2023-01-31T05:47:27;25.70;99.90
56322;DHT22;42227;6.376;-10.782;2023-01-31T05:49:55;25.70;99.90
56322;DHT22;42227;6.376;-10.782;2023-01-31T05:52:23;25.50;99.90
56322;DHT22;42227;6.376;-10.782;2023-01-31T05:54:51;25.30;99.90
56322;DHT22;42227;6.376;-10.782;2023-01-31T05:57:19;25.20;99.90
56322;DHT22;42227;6.376;-10.782;2023-01-31T05:59:48;25.20;99.90
56322;DHT22;42227;6.376;-10.782;2023-01-31T06:02:16;25.20;99.90
56322;DHT22;42227;6.376;-10.782;2023-01-31T06:04:44;25.30;99.90
56322;DHT22;42227;6.376;-10.782;2023-01-31T06:07:13;25.30;99.90
56322;DHT22;42227;6.376;-10.782;2023-01-31T06:09:41;25.30;99.90
56322;DHT22;42227;6.376;-10.782;2023-01-31T06:12:12;25.30;99.90
56322;DHT22;42227;6.376;-10.782;2023-01-31T06:14:40;25.30;99.90
56322;DHT22;42227;6.376;-10.782;2023-01-31T06:17:09;25.50;99.90
56322;DHT22;42227;6.376;-10.782;2023-01-31T06:19:37;25.80;99.90
56322;DHT22;42227;6.376;-10.782;2023-01-31T06:22:05;26.10;99.90
56322;DHT22;42227;6.376;-10.782;2023-01-31T06:24:33;26.10;99.90
56322;DHT22;42227;6.376;-10.782;2023-01-31T06:27:02;26.10;99.90
56322;DHT22;42227;6.376;-10.782;2023-01-31T06:29:30;26.00;99.90
56322;DHT22;42227;6.376;-10.782;2023-01-31T06:31:59;25.70;99.90
56322;DHT22;42227;6.376;-10.782;2023-01-31T06:34:27;25.60;99.90
56322;DHT22;42227;6.376;-10.782;2023-01-31T06:36:55;25.50;99.90
56322;DHT22;42227;6.376;-10.782;2023-01-31T06:39:25;25.40;99.90
56322;DHT22;42227;6.376;-10.782;2023-01-31T06:41:55;25.30;99.90
56322;DHT22;42227;6.376;-10.782;2023-01-31T06:44:23;25.30;99.90
56322;DHT22;42227;6.376;-10.782;2023-01-31T06:46:53;25.30;99.90
56322;DHT22;42227;6.376;-10.782;2023-01-31T06:49:22;25.30;99.90
56322;DHT22;42227;6.376;-10.782;2023-01-31T06:51:50;25.30;99.90
56322;DHT22;42227;6.376;-10.782;2023-01-31T06:54:19;25.40;99.90
56322;DHT22;42227;6.376;-10.782;2023-01-31T06:56:47;25.70;99.90
56322;DHT22;42227;6.376;-10.782;2023-01-31T06:59:16;25.90;99.90
56322;DHT22;42227;6.376;-10.782;2023-01-31T07:01:44;26.20;99.90
56322;DHT22;42227;6.376;-10.782;2023-01-31T07:04:12;26.20;99.90
56322;DHT22;42227;6.376;-10.782;2023-01-31T07:06:41;26.30;99.90
56322;DHT22;42227;6.376;-10.782;2023-01-31T07:09:10;26.40;99.90
56322;DHT22;42227;6.376;-10.782;2023-01-31T07:11:39;26.30;99.90
56322;DHT22;42227;6.376;-10.782;2023-01-31T07:14:07;26.30;99.90
56322;DHT22;42227;6.376;-10.782;2023-01-31T07:16:36;26.30;99.90
56322;DHT22;42227;6.376;-10.782;2023-01-31T07:19:04;26.00;99.90
56322;DHT22;42227;6.376;-10.782;2023-01-31T07:21:34;25.90;99.90
56322;DHT22;42227;6.376;-10.782;2023-01-31T07:24:03;25.90;99.90
56322;DHT22;42227;6.376;-10.782;2023-01-31T07:26:31;25.80;99.90
56322;DHT22;42227;6.376;-10.782;2023-01-31T07:28:59;25.90;99.90
56322;DHT22;42227;6.376;-10.782;2023-01-31T07:31:28;25.70;99.90
56322;DHT22;42227;6.376;-10.782;2023-01-31T07:33:58;25.70;99.90
56322;DHT22;42227;6.376;-10.782;2023-01-31T07:36:26;25.90;99.90
56322;DHT22;42227;6.376;-10.782;2023-01-31T07:38:58;26.00;99.90
56322;DHT22;42227;6.376;-10.782;2023-01-31T07:41:26;26.10;99.90
56322;DHT22;42227;6.376;-10.782;2023-01-31T07:43:54;26.20;99.90
56322;DHT22;42227;6.376;-10.782;2023-01-31T07:46:23;26.70;99.90
56322;DHT22;42227;6.376;-10.782;2023-01-31T07:48:52;27.10;99.90
56322;DHT22;42227;6.376;-10.782;2023-01-31T07:51:20;27.20;99.90
56322;DHT22;42227;6.376;-10.782;2023-01-31T07:53:48;27.40;99.90
56322;DHT22;42227;6.376;-10.782;2023-01-31T07:56:19;27.40;99.90
56322;DHT22;42227;6.376;-10.782;2023-01-31T07:58:48;27.40;99.90
56322;DHT22;42227;6.376;-10.782;2023-01-31T08:01:21;27.20;99.90
56322;DHT22;42227;6.376;-10.782;2023-01-31T08:03:50;27.30;99.90
56322;DHT22;42227;6.376;-10.782;2023-01-31T08:06:18;27.10;99.90
56322;DHT22;42227;6.376;-10.782;2023-01-31T08:08:47;26.60;99.90
56322;DHT22;42227;6.376;-10.782;2023-01-31T08:11:15;26.80;99.90
56322;DHT22;42227;6.376;-10.782;2023-01-31T08:13:44;26.80;99.90
56322;DHT22;42227;6.376;-10.782;2023-01-31T08:16:12;26.80;99.90
56322;DHT22;42227;6.376;-10.782;2023-01-31T08:18:41;26.70;99.90
56322;DHT22;42227;6.376;-10.782;2023-01-31T08:21:10;26.70;99.90
56322;DHT22;42227;6.376;-10.782;2023-01-31T08:23:39;26.60;99.90
56322;DHT22;42227;6.376;-10.782;2023-01-31T08:26:12;26.50;99.90
56322;DHT22;42227;6.376;-10.782;2023-01-31T08:28:42;26.50;99.90
56322;DHT22;42227;6.376;-10.782;2023-01-31T08:31:16;26.60;99.90
56322;DHT22;42227;6.376;-10.782;2023-01-31T08:33:45;27.00;99.90
56322;DHT22;42227;6.376;-10.782;2023-01-31T08:36:18;27.20;99.90
56322;DHT22;42227;6.376;-10.782;2023-01-31T08:38:48;27.20;99.90
56322;DHT22;42227;6.376;-10.782;2023-01-31T08:41:18;27.50;99.90
56322;DHT22;42227;6.376;-10.782;2023-01-31T08:43:47;27.60;99.90
56322;DHT22;42227;6.376;-10.782;2023-01-31T08:46:33;28.10;99.90
56322;DHT22;42227;6.376;-10.782;2023-01-31T08:49:06;28.90;99.90
56322;DHT22;42227;6.376;-10.782;2023-01-31T08:51:34;29.90;99.90
56322;DHT22;42227;6.376;-10.782;2023-01-31T08:54:02;29.90;99.90
56322;DHT22;42227;6.376;-10.782;2023-01-31T08:56:31;31.10;99.90
56322;DHT22;42227;6.376;-10.782;2023-01-31T08:59:00;31.00;99.90
56322;DHT22;42227;6.376;-10.782;2023-01-31T09:01:28;33.20;99.90
56322;DHT22;42227;6.376;-10.782;2023-01-31T09:03:56;34.50;99.90
56322;DHT22;42227;6.376;-10.782;2023-01-31T09:06:25;35.60;97.90
56322;DHT22;42227;6.376;-10.782;2023-01-31T09:08:55;35.70;97.30
56322;DHT22;42227;6.376;-10.782;2023-01-31T09:11:26;37.20;94.60
56322;DHT22;42227;6.376;-10.782;2023-01-31T09:13:55;38.20;92.60
56322;DHT22;42227;6.376;-10.782;2023-01-31T09:16:24;38.80;91.00
56322;DHT22;42227;6.376;-10.782;2023-01-31T09:18:58;38.50;91.10
56322;DHT22;42227;6.376;-10.782;2023-01-31T09:21:28;39.10;90.50
56322;DHT22;42227;6.376;-10.782;2023-01-31T09:23:58;37.80;91.80
56322;DHT22;42227;6.376;-10.782;2023-01-31T09:26:27;35.20;97.20
56322;DHT22;42227;6.376;-10.782;2023-01-31T09:28:56;33.70;99.70
56322;DHT22;42227;6.376;-10.782;2023-01-31T09:31:24;33.70;99.90
56322;DHT22;42227;6.376;-10.782;2023-01-31T09:33:53;33.30;99.90
56322;DHT22;42227;6.376;-10.782;2023-01-31T09:36:22;33.00;99.90
56322;DHT22;42227;6.376;-10.782;2023-01-31T09:38:55;31.80;99.90
56322;DHT22;42227;6.376;-10.782;2023-01-31T09:41:34;32.20;99.90
56322;DHT22;42227;6.376;-10.782;2023-01-31T09:44:22;32.00;99.90
56322;DHT22;42227;6.376;-10.782;2023-01-31T09:47:08;32.40;99.90
56322;DHT22;42227;6.376;-10.782;2023-01-31T09:49:53;31.90;99.90
56322;DHT22;42227;6.376;-10.782;2023-01-31T09:52:22;32.10;99.90
56322;DHT22;42227;6.376;-10.782;2023-01-31T09:54:53;31.60;99.90
56322;DHT22;42227;6.376;-10.782;2023-01-31T10:00:23;30.70;99.90
56322;DHT22;42227;6.376;-10.782;2023-01-31T10:03:21;30.90;99.90
56322;DHT22;42227;6.376;-10.782;2023-01-31T10:11:15;32.30;99.90
56322;DHT22;42227;6.376;-10.782;2023-01-31T10:13:48;32.10;99.90
56322;DHT22;42227;6.376;-10.782;2023-01-31T10:16:32;32.30;99.90
56322;DHT22;42227;6.376;-10.782;2023-01-31T10:19:15;32.50;99.50
56322;DHT22;42227;6.376;-10.782;2023-01-31T10:21:54;32.80;98.80
56322;DHT22;42227;6.376;-10.782;2023-01-31T10:30:17;32.30;98.70
56322;DHT22;42227;6.376;-10.782;2023-01-31T10:32:52;32.30;99.90
56322;DHT22;42227;6.376;-10.782;2023-01-31T10:35:39;32.30;98.60
56322;DHT22;42227;6.376;-10.782;2023-01-31T10:38:21;32.30;98.40
56322;DHT22;42227;6.376;-10.782;2023-01-31T10:40:55;32.40;98.90
56322;DHT22;42227;6.376;-10.782;2023-01-31T10:43:37;32.60;98.70
56322;DHT22;42227;6.376;-10.782;2023-01-31T10:46:11;32.40;98.90
56322;DHT22;42227;6.376;-10.782;2023-01-31T10:48:41;32.50;99.10
56322;DHT22;42227;6.376;-10.782;2023-01-31T10:51:45;32.90;98.70
56322;DHT22;42227;6.376;-10.782;2023-01-31T10:54:37;33.00;98.40
56322;DHT22;42227;6.376;-10.782;2023-01-31T10:57:07;33.00;99.90
56322;DHT22;42227;6.376;-10.782;2023-01-31T10:59:40;33.30;99.90
56322;DHT22;42227;6.376;-10.782;2023-01-31T11:02:20;33.40;99.10
56322;DHT22;42227;6.376;-10.782;2023-01-31T11:04:54;33.40;99.20
56322;DHT22;42227;6.376;-10.782;2023-01-31T11:07:27;33.40;99.50
56322;DHT22;42227;6.376;-10.782;2023-01-31T11:09:58;33.40;98.00
56322;DHT22;42227;6.376;-10.782;2023-01-31T11:12:52;33.10;99.40
56322;DHT22;42227;6.376;-10.782;2023-01-31T11:15:23;32.70;99.90
56322;DHT22;42227;6.376;-10.782;2023-01-31T11:17:55;32.50;99.90
56322;DHT22;42227;6.376;-10.782;2023-01-31T11:20:33;32.50;99.90
56322;DHT22;42227;6.376;-10.782;2023-01-31T11:23:04;32.50;99.90
56322;DHT22;42227;6.376;-10.782;2023-01-31T11:25:34;32.80;99.90
56322;DHT22;42227;6.376;-10.782;2023-01-31T11:28:18;32.80;99.90
56322;DHT22;42227;6.376;-10.782;2023-01-31T11:30:50;32.80;99.90
56322;DHT22;42227;6.376;-10.782;2023-01-31T11:34:00;32.60;99.90
56322;DHT22;42227;6.376;-10.782;2023-01-31T11:36:33;32.40;99.90
56322;DHT22;42227;6.376;-10.782;2023-01-31T11:39:30;32.30;99.70
56322;DHT22;42227;6.376;-10.782;2023-01-31T11:42:13;32.20;99.90
56322;DHT22;42227;6.376;-10.782;2023-01-31T11:45:03;32.40;99.90
56322;DHT22;42227;6.376;-10.782;2023-01-31T11:47:45;32.50;99.90
56322;DHT22;42227;6.376;-10.782;2023-01-31T11:53:28;32.60;99.40
56322;DHT22;42227;6.376;-10.782;2023-01-31T11:56:22;32.40;99.90
56322;DHT22;42227;6.376;-10.782;2023-01-31T11:58:56;33.10;99.90
56322;DHT22;42227;6.376;-10.782;2023-01-31T12:01:25;33.30;99.90
56322;DHT22;42227;6.376;-10.782;2023-01-31T12:03:59;33.20;99.90
56322;DHT22;42227;6.376;-10.782;2023-01-31T12:06:33;33.20;99.70
56322;DHT22;42227;6.376;-10.782;2023-01-31T12:09:04;33.00;99.50
56322;DHT22;42227;6.376;-10.782;2023-01-31T12:11:34;33.20;99.70
56322;DHT22;42227;6.376;-10.782;2023-01-31T12:16:35;33.20;98.20
56322;DHT22;42227;6.376;-10.782;2023-01-31T12:38:50;32.60;99.90
56322;DHT22;42227;6.376;-10.782;2023-01-31T12:53:04;32.40;99.90
56322;DHT22;42227;6.376;-10.782;2023-01-31T13:01:47;31.60;99.90
56322;DHT22;42227;6.376;-10.782;2023-01-31T13:06:59;31.40;99.90
56322;DHT22;42227;6.376;-10.782;2023-01-31T13:09:38;31.30;99.90
56322;DHT22;42227;6.376;-10.782;2023-01-31T13:12:20;31.50;99.90
56322;DHT22;42227;6.376;-10.782;2023-01-31T13:14:57;31.50;99.90
56322;DHT22;42227;6.376;-10.782;2023-01-31T13:17:28;31.50;99.90
56322;DHT22;42227;6.376;-10.782;2023-01-31T13:20:07;31.30;99.90
56322;DHT22;42227;6.376;-10.782;2023-01-31T13:22:51;31.30;99.90
56322;DHT22;42227;6.376;-10.782;2023-01-31T13:28:26;32.10;99.90
56322;DHT22;42227;6.376;-10.782;2023-01-31T13:31:01;32.40;99.90
56322;DHT22;42227;6.376;-10.782;2023-01-31T13:38:53;32.50;99.90
56322;DHT22;42227;6.376;-10.782;2023-01-31T13:41:30;32.70;99.90
56322;DHT22;42227;6.376;-10.782;2023-01-31T13:44:00;32.60;99.90
56322;DHT22;42227;6.376;-10.782;2023-01-31T13:47:05;32.50;99.90
56322;DHT22;42227;6.376;-10.782;2023-01-31T13:49:46;32.40;99.90
56322;DHT22;42227;6.376;-10.782;2023-01-31T13:52:18;32.60;99.90
56322;DHT22;42227;6.376;-10.782;2023-01-31T13:54:56;32.50;99.90
56322;DHT22;42227;6.376;-10.782;2023-01-31T13:57:32;32.40;99.90
56322;DHT22;42227;6.376;-10.782;2023-01-31T14:03:12;31.80;99.90
56322;DHT22;42227;6.376;-10.782;2023-01-31T14:08:56;32.10;99.90
56322;DHT22;42227;6.376;-10.782;2023-01-31T14:16:46;32.10;99.90
56322;DHT22;42227;6.376;-10.782;2023-01-31T14:22:12;32.30;99.90
56322;DHT22;42227;6.376;-10.782;2023-01-31T14:27:19;32.20;99.90
56322;DHT22;42227;6.376;-10.782;2023-01-31T14:32:45;32.30;99.90
56322;DHT22;42227;6.376;-10.782;2023-01-31T15:00:27;31.00;99.90
56322;DHT22;42227;6.376;-10.782;2023-01-31T15:16:02;32.20;99.90
56322;DHT22;42227;6.376;-10.782;2023-01-31T15:18:32;32.10;99.90
56322;DHT22;42227;6.376;-10.782;2023-01-31T15:21:04;32.10;99.90
56322;DHT22;42227;6.376;-10.782;2023-01-31T15:23:36;31.90;99.90
56322;DHT22;42227;6.376;-10.782;2023-01-31T15:26:08;32.20;99.90
56322;DHT22;42227;6.376;-10.782;2023-01-31T15:28:40;32.00;99.90
56322;DHT22;42227;6.376;-10.782;2023-01-31T15:31:30;32.10;99.90
56322;DHT22;42227;6.376;-10.782;2023-01-31T15:34:12;31.80;99.90
56322;DHT22;42227;6.376;-10.782;2023-01-31T15:36:50;31.90;99.90
56322;DHT22;42227;6.376;-10.782;2023-01-31T15:39:28;32.20;99.90
56322;DHT22;42227;6.376;-10.782;2023-01-31T15:41:57;32.00;99.90
56322;DHT22;42227;6.376;-10.782;2023-01-31T15:44:30;31.90;99.90
56322;DHT22;42227;6.376;-10.782;2023-01-31T15:46:58;31.80;99.90
56322;DHT22;42227;6.376;-10.782;2023-01-31T15:49:40;31.60;99.90
56322;DHT22;42227;6.376;-10.782;2023-01-31T15:52:14;31.40;99.90
56322;DHT22;42227;6.376;-10.782;2023-01-31T15:54:54;31.10;99.90
56322;DHT22;42227;6.376;-10.782;2023-01-31T15:57:50;31.20;99.90
56322;DHT22;42227;6.376;-10.782;2023-01-31T16:00:27;31.40;99.90
56322;DHT22;42227;6.376;-10.782;2023-01-31T16:02:57;31.20;99.90
56322;DHT22;42227;6.376;-10.782;2023-01-31T16:05:34;31.50;99.90
56322;DHT22;42227;6.376;-10.782;2023-01-31T16:08:06;31.60;99.90
56322;DHT22;42227;6.376;-10.782;2023-01-31T16:10:43;31.40;99.90
56322;DHT22;42227;6.376;-10.782;2023-01-31T16:13:13;31.50;99.90
56322;DHT22;42227;6.376;-10.782;2023-01-31T16:15:42;31.70;99.90
56322;DHT22;42227;6.376;-10.782;2023-01-31T16:18:11;31.50;99.90
56322;DHT22;42227;6.376;-10.782;2023-01-31T16:20:44;31.50;99.90
56322;DHT22;42227;6.376;-10.782;2023-01-31T16:23:28;31.70;99.90
56322;DHT22;42227;6.376;-10.782;2023-01-31T16:29:07;31.20;99.90
56322;DHT22;42227;6.376;-10.782;2023-01-31T16:31:47;31.30;99.90
56322;DHT22;42227;6.376;-10.782;2023-01-31T16:34:29;31.40;99.90
56322;DHT22;42227;6.376;-10.782;2023-01-31T16:37:03;31.10;99.90
56322;DHT22;42227;6.376;-10.782;2023-01-31T16:39:46;30.90;99.90
56322;DHT22;42227;6.376;-10.782;2023-01-31T16:44:47;31.00;99.90
56322;DHT22;42227;6.376;-10.782;2023-01-31T16:47:44;31.10;99.90
56322;DHT22;42227;6.376;-10.782;2023-01-31T16:53:27;31.00;99.90
56322;DHT22;42227;6.376;-10.782;2023-01-31T16:58:52;31.10;99.90
56322;DHT22;42227;6.376;-10.782;2023-01-31T17:01:29;31.20;99.90
56322;DHT22;42227;6.376;-10.782;2023-01-31T17:04:04;31.10;99.90
56322;DHT22;42227;6.376;-10.782;2023-01-31T17:06:33;31.10;99.90
56322;DHT22;42227;6.376;-10.782;2023-01-31T17:09:02;31.20;99.90
56322;DHT22;42227;6.376;-10.782;2023-01-31T17:11:32;31.10;99.90
56322;DHT22;42227;6.376;-10.782;2023-01-31T17:14:10;31.00;99.90
56322;DHT22;42227;6.376;-10.782;2023-01-31T17:16:39;30.80;99.90
56322;DHT22;42227;6.376;-10.782;2023-01-31T17:19:09;30.80;99.90
56322;DHT22;42227;6.376;-10.782;2023-01-31T17:21:43;30.80;99.90
56322;DHT22;42227;6.376;-10.782;2023-01-31T17:24:14;30.80;99.90
56322;DHT22;42227;6.376;-10.782;2023-01-31T17:26:43;30.80;99.90
56322;DHT22;42227;6.376;-10.782;2023-01-31T17:29:11;30.70;99.90
56322;DHT22;42227;6.376;-10.782;2023-01-31T17:31:40;30.70;99.90
56322;DHT22;42227;6.376;-10.782;2023-01-31T17:34:15;30.60;99.90
56322;DHT22;42227;6.376;-10.782;2023-01-31T17:36:43;30.50;99.90
56322;DHT22;42227;6.376;-10.782;2023-01-31T17:39:12;30.40;99.90
56322;DHT22;42227;6.376;-10.782;2023-01-31T17:41:40;30.50;99.90
56322;DHT22;42227;6.376;-10.782;2023-01-31T17:44:12;30.50;99.90
56322;DHT22;42227;6.376;-10.782;2023-01-31T17:46:41;30.60;99.90
56322;DHT22;42227;6.376;-10.782;2023-01-31T17:49:10;30.60;99.90
56322;DHT22;42227;6.376;-10.782;2023-01-31T17:51:39;30.50;99.90
56322;DHT22;42227;6.376;-10.782;2023-01-31T17:54:07;30.40;99.90
56322;DHT22;42227;6.376;-10.782;2023-01-31T17:56:37;30.50;99.90
56322;DHT22;42227;6.376;-10.782;2023-01-31T17:59:06;30.50;99.90
56322;DHT22;42227;6.376;-10.782;2023-01-31T18:01:41;30.40;99.90
56322;DHT22;42227;6.376;-10.782;2023-01-31T18:04:09;30.30;99.90
56322;DHT22;42227;6.376;-10.782;2023-01-31T18:06:38;30.20;99.90
56322;DHT22;42227;6.376;-10.782;2023-01-31T18:09:06;30.10;99.90
56322;DHT22;42227;6.376;-10.782;2023-01-31T18:11:35;30.10;99.90
56322;DHT22;42227;6.376;-10.782;2023-01-31T18:14:04;30.00;99.90
56322;DHT22;42227;6.376;-10.782;2023-01-31T18:16:33;29.90;99.90
56322;DHT22;42227;6.376;-10.782;2023-01-31T18:19:01;29.80;99.90
56322;DHT22;42227;6.376;-10.782;2023-01-31T18:21:30;29.80;99.90
56322;DHT22;42227;6.376;-10.782;2023-01-31T18:24:01;29.80;99.90
56322;DHT22;42227;6.376;-10.782;2023-01-31T18:26:29;29.90;99.90
56322;DHT22;42227;6.376;-10.782;2023-01-31T18:28:58;29.70;99.90
56322;DHT22;42227;6.376;-10.782;2023-01-31T18:31:26;29.70;99.90
56322;DHT22;42227;6.376;-10.782;2023-01-31T18:33:55;29.60;99.90
56322;DHT22;42227;6.376;-10.782;2023-01-31T18:36:23;29.40;99.90
56322;DHT22;42227;6.376;-10.782;2023-01-31T18:38:52;29.40;99.90
56322;DHT22;42227;6.376;-10.782;2023-01-31T18:41:21;29.30;99.90
56322;DHT22;42227;6.376;-10.782;2023-01-31T18:43:50;29.10;99.90